Time;durP1;ratioP1;P1;durP2;ratioP2;P2;SDS_P1;SDS_P2;PMS_P1;PMS_P2;Temp;Humidity;BMP_temperature;BMP_pressure;BME280_temperature;BME280_humidity;BME280_pressure;Samples;Min_cycle;Max_cycle;Signal;HPM_P1;HPM_P2
2021/06/04 00:01:53;;;;;;;3.75;1.40;;;23.30;52.20;;;;;;2291621;55;21061;-74
2021/06/04 00:04:19;;;;;;;4.57;1.20;;;23.30;52.40;;;;;;2339752;54;20985;-74
2021/06/04 00:06:45;;;;;;;2.95;1.25;;;23.30;52.40;;;;;;2293051;55;20961;-74
2021/06/04 00:09:12;;;;;;;3.40;1.30;;;23.30;52.40;;;;;;2374780;54;21423;-74
2021/06/04 00:11:52;;;;;;;4.35;1.23;;;23.20;52.40;;;;;;2382098;54;21433;-74
2021/06/04 00:14:31;;;;;;;2.80;1.10;;;23.20;52.40;;;;;;2299450;54;21120;-74
2021/06/04 00:17:03;;;;;;;2.20;0.98;;;23.20;52.50;;;;;;2299982;55;21038;-76
2021/06/04 00:19:30;;;;;;;2.25;1.12;;;23.20;52.30;;;;;;2263643;55;21034;-74
2021/06/04 00:22:18;;;;;;;3.55;1.17;;;23.20;52.30;;;;;;2296958;55;20978;-74
2021/06/04 00:24:45;;;;;;;2.85;1.30;;;23.20;52.50;;;;;;2287022;55;20978;-76
2021/06/04 00:27:12;;;;;;;1.95;1.00;;;23.20;52.40;;;;;;2291991;55;20969;-74
2021/06/04 00:29:39;;;;;;;2.92;1.23;;;23.20;52.50;;;;;;2294420;55;20981;-75
2021/06/04 00:32:06;;;;;;;2.92;1.10;;;23.20;52.50;;;;;;2419149;54;21025;-76
2021/06/04 00:34:36;;;;;;;2.40;1.05;;;23.10;52.40;;;;;;2296548;55;20969;-74
2021/06/04 00:37:02;;;;;;;2.53;1.00;;;23.10;52.40;;;;;;2291692;55;20971;-73
2021/06/04 00:39:30;;;;;;;2.42;1.00;;;23.10;52.40;;;;;;2279275;55;21060;-76
2021/06/04 00:42:01;;;;;;;2.45;1.00;;;23.10;52.50;;;;;;2292978;55;20957;-74
2021/06/04 00:44:27;;;;;;;2.47;1.13;;;23.10;52.50;;;;;;2291800;55;21017;-74
2021/06/04 00:46:54;;;;;;;3.45;1.00;;;23.10;52.40;;;;;;2455570;54;21571;-74
2021/06/04 00:49:22;;;;;;;3.12;1.10;;;23.10;52.50;;;;;;2422840;53;21025;-74
2021/06/04 00:52:01;;;;;;;2.50;0.93;;;23.00;52.40;;;;;;2292729;55;20993;-74
2021/06/04 00:54:28;;;;;;;2.65;1.10;;;23.00;52.70;;;;;;2453379;54;21018;-74
2021/06/04 00:56:54;;;;;;;2.65;1.20;;;23.00;52.40;;;;;;2293630;55;21451;-74
2021/06/04 00:59:27;;;;;;;2.78;1.37;;;22.90;52.40;;;;;;2293482;55;21052;-76
2021/06/04 01:01:57;;;;;;;2.80;1.20;;;22.90;52.50;;;;;;2296880;55;21057;-76
2021/06/04 01:04:24;;;;;;;2.92;1.40;;;22.90;52.60;;;;;;2294055;55;21014;-74
2021/06/04 01:07:14;;;;;;;3.45;1.08;;;22.90;52.70;;;;;;2406810;54;20996;-74
2021/06/04 01:16:31;;;;;;;3.30;1.23;;;22.90;53.10;;;;;;2288658;55;20973;-74
2021/06/04 01:19:51;;;;;;;1.80;0.70;;;22.80;52.40;;;;;;2439868;54;21010;-74
2021/06/04 01:25:34;;;;;;;2.95;0.98;;;22.70;52.50;;;;;;2300869;55;20942;-74
2021/06/04 01:28:12;;;;;;;2.35;1.02;;;22.70;52.50;;;;;;2299993;55;21038;-74
2021/06/04 01:30:48;;;;;;;2.20;1.00;;;22.60;52.40;;;;;;2371956;53;21025;-74
2021/06/04 01:33:18;;;;;;;3.12;1.30;;;22.60;52.60;;;;;;2523527;53;20966;-75
2021/06/04 01:35:46;;;;;;;2.20;1.10;;;22.50;52.70;;;;;;2278276;55;22458;-74
2021/06/04 01:38:20;;;;;;;3.30;1.40;;;22.50;52.90;;;;;;2296173;55;20949;-75
2021/06/04 01:40:50;;;;;;;3.28;1.33;;;22.50;53.20;;;;;;2291184;55;21739;-73
2021/06/04 01:43:28;;;;;;;4.43;1.77;;;22.50;53.20;;;;;;2292395;55;21040;-73
2021/06/04 01:46:00;;;;;;;3.08;1.27;;;22.40;53.40;;;;;;2365334;54;20994;-74
2021/06/04 01:48:33;;;;;;;2.45;1.10;;;22.40;53.60;;;;;;2327944;54;21793;-76
2021/06/04 01:51:03;;;;;;;4.15;1.40;;;22.40;53.60;;;;;;2307712;55;21029;-74
2021/06/04 01:53:43;;;;;;;2.37;1.20;;;22.40;53.60;;;;;;2295995;55;21009;-74
2021/06/04 01:56:16;;;;;;;3.95;1.50;;;22.40;53.90;;;;;;2293466;55;20962;-74
2021/06/04 01:58:52;;;;;;;3.12;1.35;;;22.40;53.70;;;;;;2294044;55;21009;-74
2021/06/04 02:01:27;;;;;;;2.72;1.37;;;22.40;53.60;;;;;;2298444;55;21062;-74
2021/06/04 02:03:58;;;;;;;2.90;1.20;;;22.40;53.60;;;;;;2291708;55;20985;-74
2021/06/04 02:06:26;;;;;;;3.03;1.30;;;22.40;53.70;;;;;;2516994;54;21048;-74
2021/06/04 02:08:55;;;;;;;2.87;1.40;;;22.40;53.60;;;;;;2510498;54;21925;-74
2021/06/04 02:11:25;;;;;;;2.35;1.08;;;22.40;53.70;;;;;;2375696;54;21029;-73
2021/06/04 02:13:51;;;;;;;3.20;1.40;;;22.40;53.70;;;;;;2296166;55;20957;-76
2021/06/04 02:21:16;;;;;;;3.53;1.30;;;22.30;53.60;;;;;;2292037;55;21129;-76
2021/06/04 02:24:02;;;;;;;2.00;0.75;;;22.30;53.80;;;;;;2299314;55;21574;-74
2021/06/04 02:26:32;;;;;;;1.95;0.88;;;22.30;53.20;;;;;;2294643;55;21113;-74
2021/06/04 02:29:21;;;;;;;1.98;0.85;;;22.20;53.30;;;;;;2283593;55;20966;-74
2021/06/04 02:32:02;;;;;;;2.50;1.10;;;22.20;53.70;;;;;;2288481;55;21147;-74
2021/06/04 02:37:06;;;;;;;1.83;0.80;;;22.10;53.60;;;;;;2294099;55;21048;-75
2021/06/04 02:39:39;;;;;;;2.40;0.77;;;22.10;53.70;;;;;;2302697;58;21119;-74
2021/06/04 02:42:24;;;;;;;2.45;1.08;;;22.10;53.50;;;;;;2302252;58;21051;-74
2021/06/04 02:44:54;;;;;;;2.05;0.90;;;22.10;53.90;;;;;;2291921;55;21040;-74
2021/06/04 02:47:26;;;;;;;2.53;1.15;;;22.00;53.60;;;;;;2304033;55;20981;-75
2021/06/04 02:49:54;;;;;;;2.65;1.15;;;22.00;53.80;;;;;;2279135;55;21041;-74
2021/06/04 02:52:37;;;;;;;3.37;1.40;;;22.00;53.90;;;;;;2293379;55;20942;-74
2021/06/04 02:55:14;;;;;;;3.75;1.40;;;22.00;54.60;;;;;;2500217;53;20933;-74
2021/06/04 02:57:40;;;;;;;3.53;1.23;;;22.00;54.50;;;;;;2298346;55;20990;-73
2021/06/04 03:00:39;;;;;;;2.60;1.30;;;21.90;54.20;;;;;;2294840;55;21030;-73
2021/06/04 03:03:06;;;;;;;2.72;1.20;;;22.00;55.40;;;;;;2391136;53;20970;-74
2021/06/04 03:05:33;;;;;;;3.55;1.33;;;21.90;54.20;;;;;;2290914;55;21006;-73
2021/06/04 03:08:00;;;;;;;2.30;1.20;;;22.00;54.40;;;;;;2335176;55;21024;-74
2021/06/04 03:10:32;;;;;;;3.60;1.27;;;21.90;54.40;;;;;;2291933;55;20988;-73
2021/06/04 03:12:59;;;;;;;4.30;1.40;;;21.90;54.50;;;;;;2295578;55;21518;-77
2021/06/04 03:15:47;;;;;;;2.40;1.05;;;21.90;54.50;;;;;;2297578;55;21147;-76
2021/06/04 03:18:16;;;;;;;2.35;1.15;;;21.90;54.90;;;;;;2320266;54;20973;-73
2021/06/04 03:20:44;;;;;;;2.90;1.23;;;21.90;54.50;;;;;;2295920;55;20977;-73
2021/06/04 03:23:15;;;;;;;2.87;1.30;;;21.90;54.50;;;;;;2518099;54;21021;-74
2021/06/04 03:25:44;;;;;;;4.57;1.23;;;21.90;54.70;;;;;;2300403;55;21094;-76
2021/06/04 03:28:11;;;;;;;2.20;1.10;;;21.90;54.70;;;;;;2297313;55;21052;-74
2021/06/04 03:30:40;;;;;;;3.42;1.35;;;21.90;54.80;;;;;;2295693;55;21041;-74
2021/06/04 03:33:06;;;;;;;2.33;1.08;;;21.90;55.00;;;;;;2513963;54;20971;-74
2021/06/04 03:35:32;;;;;;;3.25;1.55;;;21.90;54.90;;;;;;2271111;55;21081;-74
2021/06/04 03:37:59;;;;;;;2.92;1.42;;;21.90;55.10;;;;;;2291317;55;21854;-74
2021/06/04 03:40:27;;;;;;;2.58;1.40;;;21.90;55.30;;;;;;2297201;55;20947;-73
2021/06/04 03:42:57;;;;;;;4.15;1.45;;;21.90;55.40;;;;;;2276804;55;21034;-76
2021/06/04 03:45:29;;;;;;;3.03;1.40;;;21.90;55.40;;;;;;2295454;55;21113;-74
2021/06/04 03:47:56;;;;;;;2.75;1.27;;;21.90;55.60;;;;;;2292530;55;21012;-74
2021/06/04 03:50:22;;;;;;;3.33;1.48;;;21.90;55.50;;;;;;2296699;55;20993;-75
2021/06/04 03:52:49;;;;;;;5.22;1.50;;;22.00;55.60;;;;;;2296390;55;20981;-74
2021/06/04 03:55:16;;;;;;;3.85;1.48;;;22.00;55.60;;;;;;2297658;55;20962;-74
2021/06/04 03:57:43;;;;;;;2.30;1.20;;;22.00;55.60;;;;;;2293756;55;20949;-74
2021/06/04 04:00:20;;;;;;;2.37;1.10;;;22.00;55.70;;;;;;2299961;55;21089;-75
2021/06/04 04:02:46;;;;;;;2.55;1.33;;;22.00;55.90;;;;;;2387399;54;21031;-74
2021/06/04 04:05:13;;;;;;;6.30;2.05;;;22.00;55.80;;;;;;2447863;54;21870;-75
2021/06/04 04:07:39;;;;;;;2.87;1.62;;;22.00;55.90;;;;;;2378014;54;21058;-74
2021/06/04 04:10:07;;;;;;;4.47;2.47;;;22.00;55.80;;;;;;2299482;54;21114;-74
2021/06/04 04:12:33;;;;;;;4.40;2.17;;;22.00;55.90;;;;;;2472956;54;21002;-75
2021/06/04 04:15:00;;;;;;;4.95;2.30;;;22.00;55.80;;;;;;2507629;54;21509;-76
2021/06/04 04:17:29;;;;;;;5.45;2.75;;;22.00;55.90;;;;;;2296092;55;20965;-75
2021/06/04 04:19:56;;;;;;;5.87;3.00;;;22.10;56.10;;;;;;2281303;55;21044;-75
2021/06/04 04:22:22;;;;;;;3.92;1.98;;;22.10;56.10;;;;;;2289577;55;21013;-76
2021/06/04 04:24:51;;;;;;;2.75;1.55;;;22.10;56.20;;;;;;2283323;55;20971;-75
2021/06/04 04:27:17;;;;;;;4.47;2.05;;;22.10;56.20;;;;;;2293158;55;20953;-74
2021/06/04 04:29:43;;;;;;;3.30;1.60;;;22.10;56.30;;;;;;2312568;55;20957;-76
2021/06/04 04:32:13;;;;;;;4.87;1.55;;;22.10;56.30;;;;;;2293408;55;20961;-76
2021/06/04 04:34:40;;;;;;;2.87;1.67;;;22.20;56.40;;;;;;2280472;55;20971;-76
2021/06/04 04:37:07;;;;;;;3.03;1.60;;;22.20;56.50;;;;;;2291408;55;20937;-76
2021/06/04 04:39:36;;;;;;;3.15;1.48;;;22.20;56.50;;;;;;2296552;54;21042;-74
2021/06/04 04:42:04;;;;;;;4.93;1.55;;;22.20;56.50;;;;;;2282554;55;21473;-75
2021/06/04 04:44:32;;;;;;;4.12;1.85;;;22.20;56.60;;;;;;2296652;55;20954;-75
2021/06/04 04:47:00;;;;;;;3.83;1.70;;;22.30;56.80;;;;;;2279337;55;21094;-75
2021/06/04 04:49:28;;;;;;;4.18;1.80;;;22.30;56.80;;;;;;2292582;55;20985;-75
2021/06/04 04:51:54;;;;;;;3.83;1.50;;;22.40;56.80;;;;;;2518037;54;21911;-74
2021/06/04 04:54:20;;;;;;;3.10;1.55;;;22.40;56.80;;;;;;2519622;54;20969;-74
2021/06/04 04:56:49;;;;;;;2.90;1.35;;;22.40;56.80;;;;;;2281670;55;21029;-74
2021/06/04 04:59:16;;;;;;;3.00;1.52;;;22.50;56.90;;;;;;2422406;54;21837;-75
2021/06/04 05:01:42;;;;;;;3.53;1.87;;;22.50;57.00;;;;;;2335744;54;20977;-74
2021/06/04 05:04:09;;;;;;;4.28;1.40;;;22.50;57.70;;;;;;2291300;55;21839;-74
2021/06/04 05:06:36;;;;;;;4.75;1.62;;;22.60;57.20;;;;;;2293778;55;21858;-74
2021/06/04 05:09:06;;;;;;;2.83;1.45;;;22.60;57.30;;;;;;2294959;55;21092;-74
2021/06/04 05:11:33;;;;;;;3.08;1.55;;;22.70;57.50;;;;;;2303004;55;21063;-74
2021/06/04 05:14:00;;;;;;;3.03;1.60;;;22.70;57.50;;;;;;2517014;54;20993;-73
2021/06/04 05:16:26;;;;;;;4.82;1.62;;;22.80;57.60;;;;;;2296769;55;21014;-74
2021/06/04 05:18:53;;;;;;;3.95;1.85;;;22.90;57.80;;;;;;2512030;54;20989;-76
2021/06/04 05:21:20;;;;;;;3.47;1.70;;;22.90;57.70;;;;;;2517826;54;21859;-75
2021/06/04 05:23:46;;;;;;;4.55;1.85;;;23.00;57.70;;;;;;2285089;55;21017;-74
2021/06/04 05:26:13;;;;;;;2.80;1.42;;;23.00;57.70;;;;;;2402814;54;21025;-74
2021/06/04 05:28:43;;;;;;;3.78;1.85;;;23.10;57.70;;;;;;2291088;55;21029;-76
2021/06/04 05:31:10;;;;;;;3.40;1.60;;;23.20;57.80;;;;;;2523586;54;21084;-74
2021/06/04 05:33:37;;;;;;;3.45;1.80;;;23.30;57.80;;;;;;2292875;54;21430;-75
2021/06/04 05:36:06;;;;;;;3.15;1.40;;;23.40;57.80;;;;;;2298810;55;20973;-74
2021/06/04 05:38:32;;;;;;;3.58;1.62;;;23.50;57.80;;;;;;2470460;54;21729;-76
2021/06/04 05:40:59;;;;;;;3.95;1.42;;;23.50;57.60;;;;;;2290540;55;21001;-75
2021/06/04 05:43:28;;;;;;;2.95;1.33;;;23.60;57.50;;;;;;2295481;55;20933;-75
2021/06/04 05:45:54;;;;;;;3.15;1.60;;;23.70;57.60;;;;;;2294758;55;21025;-74
2021/06/04 05:48:21;;;;;;;4.65;1.80;;;23.80;57.50;;;;;;2295095;55;20962;-76
2021/06/04 05:50:49;;;;;;;3.12;1.48;;;23.80;57.40;;;;;;2297831;55;21001;-75
2021/06/04 05:53:18;;;;;;;3.20;1.60;;;23.90;57.30;;;;;;2290921;55;20985;-75
2021/06/04 05:55:44;;;;;;;3.33;1.80;;;24.00;57.40;;;;;;2290568;55;20973;-74
2021/06/04 05:58:12;;;;;;;4.45;1.83;;;24.10;57.40;;;;;;2285379;55;21787;-75
2021/06/04 06:00:42;;;;;;;2.85;1.58;;;24.20;57.40;;;;;;2336105;54;20969;-74
2021/06/04 06:03:08;;;;;;;4.20;1.67;;;24.20;57.40;;;;;;2297629;54;20958;-75
2021/06/04 06:05:36;;;;;;;3.30;1.48;;;24.30;57.30;;;;;;2297799;55;21843;-75
2021/06/04 06:08:02;;;;;;;3.55;1.95;;;24.30;57.30;;;;;;2290793;55;20989;-76
2021/06/04 06:10:29;;;;;;;2.67;1.48;;;24.40;57.30;;;;;;2394923;54;20926;-74
2021/06/04 06:12:58;;;;;;;3.95;2.10;;;24.40;57.30;;;;;;2505956;53;21049;-74
2021/06/04 06:15:26;;;;;;;3.92;2.25;;;24.50;57.50;;;;;;2291578;55;21004;-75
2021/06/04 06:17:52;;;;;;;4.28;2.10;;;24.60;57.40;;;;;;2280543;55;21165;-74
2021/06/04 06:20:23;;;;;;;3.67;2.08;;;24.60;57.20;;;;;;2297733;55;20978;-75
2021/06/04 06:22:51;;;;;;;5.35;1.90;;;24.60;57.20;;;;;;2299309;55;20991;-75
2021/06/04 06:25:26;;;;;;;3.28;1.67;;;24.70;57.20;;;;;;2295349;55;20965;-74
2021/06/04 06:27:52;;;;;;;3.85;1.80;;;24.80;57.20;;;;;;2272333;55;21089;-74
2021/06/04 06:30:21;;;;;;;3.08;1.60;;;24.80;57.10;;;;;;2289905;55;21057;-74
2021/06/04 06:32:47;;;;;;;3.35;1.90;;;24.90;57.30;;;;;;2286583;55;21022;-74
2021/06/04 06:35:13;;;;;;;5.93;1.80;;;25.00;57.40;;;;;;2362052;54;20978;-74
2021/06/04 06:37:40;;;;;;;3.95;1.45;;;25.00;57.20;;;;;;2358636;54;21067;-74
2021/06/04 06:40:09;;;;;;;3.22;1.62;;;25.10;56.80;;;;;;2278435;55;21486;-74
2021/06/04 06:42:35;;;;;;;3.00;1.33;;;25.20;56.60;;;;;;2296069;55;21013;-75
2021/06/04 06:45:09;;;;;;;3.90;1.40;;;25.30;56.50;;;;;;2294419;55;20972;-74
2021/06/04 06:47:39;;;;;;;3.22;1.60;;;25.40;56.50;;;;;;2448716;54;21818;-75
2021/06/04 06:50:07;;;;;;;5.32;1.35;;;25.40;56.50;;;;;;2293366;55;21306;-74
2021/06/04 06:52:33;;;;;;;3.72;1.90;;;25.50;56.30;;;;;;2299466;54;20973;-75
2021/06/04 06:55:00;;;;;;;4.62;1.60;;;25.60;55.90;;;;;;2298300;55;21009;-74
2021/06/04 06:57:27;;;;;;;4.65;1.58;;;25.70;55.70;;;;;;2290436;55;21124;-76
2021/06/04 06:59:53;;;;;;;4.45;1.73;;;25.80;55.60;;;;;;2472134;54;20999;-74
2021/06/04 07:02:21;;;;;;;3.17;1.60;;;25.80;55.30;;;;;;2297303;55;20958;-76
2021/06/04 07:04:47;;;;;;;5.37;1.50;;;25.90;55.10;;;;;;2291374;55;21434;-76
2021/06/04 07:07:17;;;;;;;4.07;2.08;;;26.00;54.90;;;;;;2283154;55;21935;-74
2021/06/04 07:09:47;;;;;;;3.30;1.80;;;26.00;54.80;;;;;;2299168;55;21262;-76
2021/06/04 07:12:13;;;;;;;4.95;1.62;;;26.10;54.60;;;;;;2290183;55;21030;-74
2021/06/04 07:14:40;;;;;;;3.35;1.48;;;26.10;54.60;;;;;;2290249;55;21089;-75
2021/06/04 07:17:06;;;;;;;2.67;1.48;;;26.10;54.40;;;;;;2292934;55;20992;-75
2021/06/04 07:19:34;;;;;;;4.87;1.95;;;26.20;54.50;;;;;;2412537;54;20993;-74
2021/06/04 07:22:01;;;;;;;4.72;2.10;;;26.20;54.40;;;;;;2524164;54;21058;-75
2021/06/04 07:24:28;;;;;;;3.50;1.42;;;26.20;54.30;;;;;;2288424;55;21773;-74
2021/06/04 07:26:56;;;;;;;3.17;1.48;;;26.30;54.40;;;;;;2284627;55;21003;-74
2021/06/04 07:29:22;;;;;;;4.62;1.80;;;26.30;54.30;;;;;;2331682;53;21232;-75
2021/06/04 07:31:49;;;;;;;3.37;1.65;;;26.30;54.30;;;;;;2502675;53;21042;-74
2021/06/04 07:34:15;;;;;;;4.75;1.98;;;26.40;54.30;;;;;;2289980;55;21055;-74
2021/06/04 07:36:43;;;;;;;5.25;1.58;;;26.50;54.00;;;;;;2291439;55;20965;-77
2021/06/04 07:39:15;;;;;;;3.62;1.70;;;26.40;53.90;;;;;;2291645;55;20957;-76
2021/06/04 07:41:44;;;;;;;6.53;1.77;;;26.50;53.90;;;;;;2291330;55;20965;-78
2021/06/04 07:44:12;;;;;;;3.00;1.52;;;26.60;54.10;;;;;;2287862;55;20963;-76
2021/06/04 07:46:38;;;;;;;3.33;1.60;;;26.60;54.10;;;;;;2277758;55;21996;-75
2021/06/04 07:49:05;;;;;;;3.28;1.52;;;26.70;53.90;;;;;;2388647;54;21518;-76
2021/06/04 07:51:36;;;;;;;3.85;1.65;;;26.70;53.70;;;;;;2434759;54;20972;-76
2021/06/04 07:54:03;;;;;;;3.97;1.87;;;26.80;53.50;;;;;;2287055;55;21013;-77
2021/06/04 07:56:29;;;;;;;6.78;1.90;;;26.80;53.40;;;;;;2282914;55;21022;-76
2021/06/04 07:58:55;;;;;;;3.25;1.55;;;26.70;53.10;;;;;;2308255;55;20918;-76
2021/06/04 08:01:22;;;;;;;5.12;2.10;;;26.70;53.00;;;;;;2295358;55;21104;-78
2021/06/04 08:03:51;;;;;;;2.78;1.50;;;26.70;52.90;;;;;;2306646;53;20990;-77
2021/06/04 08:06:18;;;;;;;2.92;1.35;;;26.70;52.90;;;;;;2292548;55;21025;-78
2021/06/04 08:08:44;;;;;;;3.20;1.40;;;26.70;52.90;;;;;;2308961;55;20958;-76
2021/06/04 08:11:27;;;;;;;7.50;2.17;;;26.70;52.90;;;;;;2312895;54;21001;-76
2021/06/04 08:13:57;;;;;;;4.15;1.80;;;26.70;52.70;;;;;;2295711;55;20969;-75
2021/06/04 08:16:24;;;;;;;4.28;1.62;;;26.70;53.30;;;;;;2289711;55;21120;-77
2021/06/04 08:18:50;;;;;;;4.65;1.55;;;26.60;52.80;;;;;;2290249;55;20925;-75
2021/06/04 08:21:22;;;;;;;5.20;1.70;;;26.60;53.00;;;;;;2287851;55;20980;-77
2021/06/04 08:23:48;;;;;;;4.70;1.58;;;26.60;53.40;;;;;;2316057;54;21052;-76
2021/06/04 08:26:22;;;;;;;4.75;1.58;;;26.60;53.30;;;;;;2288970;55;21762;-76
2021/06/04 08:28:51;;;;;;;3.42;1.45;;;26.70;53.40;;;;;;2292967;55;22959;-75
2021/06/04 08:31:19;;;;;;;4.85;1.85;;;26.70;53.40;;;;;;2288359;54;21129;-76
2021/06/04 08:33:45;;;;;;;3.83;1.55;;;26.80;53.50;;;;;;2293132;55;20949;-77
2021/06/04 08:36:17;;;;;;;3.90;1.50;;;26.80;53.50;;;;;;2290138;55;20973;-76
2021/06/04 08:38:43;;;;;;;2.92;1.45;;;26.90;53.60;;;;;;2292280;55;21025;-76
2021/06/04 08:41:33;;;;;;;4.85;2.10;;;27.00;53.50;;;;;;2288686;55;21436;-76
2021/06/04 08:46:00;;;;;;;4.05;1.70;;;27.10;53.00;;;;;;2494581;54;21021;-78
2021/06/04 08:48:45;;;;;;;6.22;2.10;;;27.10;52.90;;;;;;2446817;53;21005;-75
2021/06/04 08:51:34;;;;;;;3.58;1.70;;;27.20;53.00;;;;;;2294355;55;21037;-76
2021/06/04 09:05:44;;;;;;;3.28;1.60;;;27.30;52.80;;;;;;2326905;54;21001;-78
2021/06/04 09:08:14;;;;;;;2.85;1.05;;;27.80;52.50;;;;;;2300750;55;21815;-74
2021/06/04 09:10:51;;;;;;;3.20;1.50;;;27.90;52.50;;;;;;2290361;55;20962;-76
2021/06/04 09:13:23;;;;;;;4.50;2.47;;;28.00;51.70;;;;;;2294550;55;21956;-76
2021/06/04 09:15:53;;;;;;;3.30;1.48;;;28.10;50.90;;;;;;2290745;55;21013;-75
2021/06/04 09:18:34;;;;;;;2.80;1.35;;;28.20;51.10;;;;;;2414142;54;21834;-76
2021/06/04 09:21:05;;;;;;;2.95;1.42;;;28.20;50.50;;;;;;2304765;54;21104;-76
2021/06/04 09:23:34;;;;;;;3.83;1.50;;;28.40;50.70;;;;;;2285487;55;20985;-76
2021/06/04 09:26:01;;;;;;;4.53;1.58;;;28.50;50.30;;;;;;2264952;55;21918;-76
2021/06/04 09:28:31;;;;;;;5.03;1.80;;;28.50;50.30;;;;;;2290397;55;21037;-73
2021/06/04 09:31:17;;;;;;;5.55;2.40;;;28.60;49.60;;;;;;2289212;55;21112;-72
2021/06/04 09:33:55;;;;;;;6.12;1.90;;;28.70;48.20;;;;;;2349326;54;20997;-74
2021/06/04 09:36:44;;;;;;;3.40;1.80;;;28.80;47.20;;;;;;2291271;55;20993;-74
2021/06/04 09:39:19;;;;;;;3.97;1.87;;;28.80;47.80;;;;;;2289792;55;21005;-75
2021/06/04 09:41:46;;;;;;;5.78;1.90;;;28.90;46.80;;;;;;2270956;55;21049;-73
2021/06/04 09:44:24;;;;;;;2.95;1.48;;;28.90;47.20;;;;;;2294090;55;20965;-75
2021/06/04 09:47:13;;;;;;;3.33;1.58;;;28.90;46.60;;;;;;2290848;55;20977;-75
2021/06/04 09:49:48;;;;;;;5.40;1.83;;;29.00;46.50;;;;;;2265549;55;20957;-74
2021/06/04 09:52:37;;;;;;;3.58;1.67;;;29.00;46.60;;;;;;2282318;55;21886;-76
2021/06/04 09:55:25;;;;;;;5.60;1.90;;;29.00;46.60;;;;;;2299101;55;21061;-76
2021/06/04 09:58:26;;;;;;;3.80;1.62;;;29.10;46.70;;;;;;2291431;55;20965;-74
2021/06/04 10:01:11;;;;;;;3.75;1.70;;;29.10;47.20;;;;;;2523464;53;20954;-76
2021/06/04 10:03:47;;;;;;;3.62;1.73;;;29.20;47.60;;;;;;2300686;55;21017;-75
2021/06/04 10:09:14;;;;;;;3.47;1.80;;;29.20;47.60;;;;;;2293860;55;20961;-75
2021/06/04 10:12:37;;;;;;;3.70;1.90;;;29.40;47.60;;;;;;2295907;55;21479;-76
2021/06/04 10:15:22;;;;;;;3.22;1.58;;;29.40;47.20;;;;;;2295394;55;21117;-74
2021/06/04 10:20:48;;;;;;;3.75;2.30;;;29.60;47.20;;;;;;2295950;55;20989;-75
2021/06/04 10:26:57;;;;;;;4.03;1.73;;;29.60;46.40;;;;;;2288907;55;21602;-76
2021/06/04 10:29:24;;;;;;;5.05;1.45;;;29.70;46.80;;;;;;2298756;55;21813;-74
2021/06/04 10:31:56;;;;;;;3.62;1.62;;;29.80;46.50;;;;;;2279438;55;20946;-76
2021/06/04 10:37:28;;;;;;;3.92;1.80;;;29.90;46.20;;;;;;2298256;55;20997;-75
2021/06/04 10:46:44;;;;;;;3.33;1.50;;;30.00;45.80;;;;;;2299980;55;21104;-76
2021/06/04 10:49:52;;;;;;;3.28;1.70;;;30.10;45.90;;;;;;2296288;55;21025;-75
2021/06/04 10:52:31;;;;;;;3.70;1.70;;;30.30;45.30;;;;;;2295575;55;21010;-76
2021/06/04 10:56:35;;;;;;;4.37;2.10;;;30.30;45.60;;;;;;2293080;55;21010;-74
2021/06/04 10:59:12;;;;;;;6.90;1.95;;;30.30;45.10;;;;;;2302648;55;21017;-75
2021/06/04 11:01:46;;;;;;;3.87;1.95;;;30.40;45.20;;;;;;2296540;55;20969;-76
2021/06/04 11:04:36;;;;;;;4.12;1.83;;;30.40;44.60;;;;;;2293594;55;20977;-75
2021/06/04 11:07:13;;;;;;;2.47;1.33;;;30.40;44.70;;;;;;2301443;55;20997;-75
2021/06/04 11:11:19;;;;;;;2.70;1.58;;;30.40;44.90;;;;;;2287312;55;21131;-77
2021/06/04 11:14:51;;;;;;;4.00;2.10;;;30.50;45.00;;;;;;2300187;55;21033;-75
2021/06/04 11:17:23;;;;;;;3.00;1.83;;;30.60;44.20;;;;;;2298021;55;21073;-77
2021/06/04 11:20:08;;;;;;;2.60;1.37;;;30.50;44.20;;;;;;2436840;54;20977;-74
2021/06/04 11:22:48;;;;;;;3.45;1.52;;;30.50;43.70;;;;;;2289597;55;20979;-73
2021/06/04 11:25:32;;;;;;;5.43;2.20;;;30.50;43.80;;;;;;2375321;53;21537;-76
2021/06/04 11:29:27;;;;;;;2.85;1.50;;;30.40;43.10;;;;;;2292640;55;21296;-76
2021/06/04 11:32:18;;;;;;;4.68;1.98;;;30.40;43.70;;;;;;2295883;55;21078;-75
2021/06/04 11:34:56;;;;;;;3.87;1.80;;;30.30;42.90;;;;;;2298250;55;20938;-75
2021/06/04 11:40:09;;;;;;;2.97;1.50;;;30.30;43.30;;;;;;2272470;55;21001;-75
2021/06/04 11:42:47;;;;;;;3.08;1.77;;;30.20;43.80;;;;;;2306280;55;20998;-74
2021/06/04 11:45:14;;;;;;;3.25;1.50;;;30.20;43.30;;;;;;2295131;55;20977;-74
2021/06/04 11:47:40;;;;;;;5.00;2.22;;;30.20;43.60;;;;;;2291215;55;21092;-78
2021/06/04 11:50:10;;;;;;;3.53;2.08;;;30.20;43.50;;;;;;2290038;55;20941;-75
2021/06/04 11:52:45;;;;;;;3.55;1.70;;;30.30;43.30;;;;;;2292862;55;21806;-74
2021/06/04 11:55:35;;;;;;;4.80;1.90;;;30.30;43.40;;;;;;2293442;55;20982;-74
2021/06/04 11:58:48;;;;;;;6.05;1.45;;;30.30;42.60;;;;;;2283745;55;21022;-76
2021/06/04 12:01:48;;;;;;;3.90;1.60;;;30.30;43.00;;;;;;2315237;54;20978;-75
2021/06/04 12:04:16;;;;;;;3.47;1.62;;;30.40;43.10;;;;;;2371625;54;21036;-74
2021/06/04 12:06:59;;;;;;;3.62;1.67;;;30.40;43.10;;;;;;2293000;55;21128;-75
2021/06/04 12:09:59;;;;;;;3.67;1.90;;;30.40;42.50;;;;;;2451332;54;20950;-75
2021/06/04 12:12:57;;;;;;;6.62;2.08;;;30.50;42.50;;;;;;2294193;55;20941;-75
2021/06/04 12:15:31;;;;;;;5.43;2.20;;;30.50;41.80;;;;;;2515998;54;21938;-75
2021/06/04 12:18:29;;;;;;;3.40;1.90;;;30.50;41.80;;;;;;2285469;54;21107;-74
2021/06/04 12:20:56;;;;;;;4.05;1.60;;;30.50;42.00;;;;;;2297474;55;20958;-75
2021/06/04 12:30:27;;;;;;;3.20;1.95;;;30.60;42.00;;;;;;2315660;54;21080;-74
2021/06/04 12:33:03;;;;;;;4.10;1.70;;;30.60;41.70;;;;;;2299567;55;21030;-76
2021/06/04 12:35:41;;;;;;;4.95;2.08;;;30.60;42.20;;;;;;2346378;54;21018;-75
2021/06/04 12:38:29;;;;;;;3.00;1.60;;;30.60;40.70;;;;;;2296025;55;21010;-75
2021/06/04 12:40:55;;;;;;;4.03;1.67;;;30.70;41.40;;;;;;2400198;54;20922;-76
2021/06/04 12:43:24;;;;;;;3.85;1.65;;;30.70;41.20;;;;;;2280618;55;21040;-74
2021/06/04 12:46:33;;;;;;;6.07;1.50;;;30.70;41.20;;;;;;2293299;55;21005;-74
2021/06/04 12:49:02;;;;;;;4.05;1.75;;;30.70;41.20;;;;;;2306116;54;20958;-75
2021/06/04 12:51:29;;;;;;;3.95;1.42;;;30.80;40.90;;;;;;2282257;55;21594;-75
2021/06/04 12:54:06;;;;;;;2.87;1.48;;;30.80;41.00;;;;;;2296206;55;20957;-77
2021/06/04 12:56:50;;;;;;;2.97;1.40;;;30.80;40.90;;;;;;2327936;54;21421;-75
2021/06/04 12:59:20;;;;;;;3.20;1.70;;;30.90;41.00;;;;;;2290944;55;21048;-75
2021/06/04 13:05:14;;;;;;;4.45;1.65;;;30.90;40.80;;;;;;2454381;55;21826;-75
2021/06/04 13:07:41;;;;;;;3.58;1.60;;;30.90;40.40;;;;;;2303149;54;21060;-76
2021/06/04 13:10:25;;;;;;;3.92;1.30;;;30.90;40.50;;;;;;2300404;55;21145;-76
2021/06/04 13:12:55;;;;;;;4.47;1.95;;;30.90;40.60;;;;;;2295875;55;20981;-77
2021/06/04 13:15:27;;;;;;;2.58;1.40;;;30.90;41.00;;;;;;2327580;54;21017;-73
2021/06/04 13:18:01;;;;;;;2.50;1.30;;;30.90;41.20;;;;;;2287800;55;20986;-73
2021/06/04 13:20:42;;;;;;;2.28;1.15;;;30.90;41.10;;;;;;2286906;55;20962;-75
2021/06/04 13:23:25;;;;;;;2.55;1.25;;;30.90;40.60;;;;;;2276491;55;21034;-77
2021/06/04 13:26:15;;;;;;;2.42;1.12;;;31.00;40.30;;;;;;2417180;53;20985;-74
2021/06/04 13:28:50;;;;;;;2.95;1.45;;;30.90;40.30;;;;;;2376316;53;21292;-76
2021/06/04 13:31:27;;;;;;;3.10;1.17;;;31.00;41.10;;;;;;2294178;55;21044;-75
2021/06/04 13:33:56;;;;;;;2.75;1.25;;;31.00;41.30;;;;;;2369484;54;21025;-75
2021/06/04 13:36:23;;;;;;;2.00;1.10;;;31.10;41.50;;;;;;2284027;55;20987;-75
2021/06/04 13:38:57;;;;;;;3.20;1.50;;;31.20;41.60;;;;;;2511374;54;21779;-75
2021/06/04 13:41:29;;;;;;;2.72;1.30;;;31.20;41.30;;;;;;2292568;55;21036;-74
2021/06/04 13:44:00;;;;;;;2.30;1.20;;;31.40;41.40;;;;;;2280060;55;21004;-76
2021/06/04 13:46:35;;;;;;;2.72;1.10;;;31.50;41.50;;;;;;2382961;54;21454;-74
2021/06/04 13:49:46;;;;;;;2.30;1.10;;;31.60;41.50;;;;;;2344759;54;21002;-76
2021/06/04 13:52:23;;;;;;;3.95;1.20;;;31.80;41.10;;;;;;2299255;55;20954;-74
2021/06/04 13:54:55;;;;;;;2.70;1.12;;;31.90;40.60;;;;;;2296288;55;21046;-73
2021/06/04 13:57:36;;;;;;;;;;;32.10;41.30;;;;;;2295241;55;20970;-75
2021/06/04 14:00:20;;;;;;;2.83;1.45;;;32.20;41.30;;;;;;2434595;54;20180;-75
2021/06/04 14:03:03;;;;;;;2.22;1.08;;;32.40;40.40;;;;;;2468548;54;21045;-75
2021/06/04 14:05:32;;;;;;;4.65;1.20;;;32.50;40.40;;;;;;2286266;55;21057;-74
2021/06/04 14:08:40;;;;;;;2.37;1.08;;;32.60;40.20;;;;;;2295160;55;21000;-76
2021/06/04 14:11:14;;;;;;;3.72;1.23;;;32.80;40.00;;;;;;2293161;55;21040;-75
2021/06/04 14:14:25;;;;;;;4.37;1.23;;;32.80;39.80;;;;;;2284779;55;21061;-76
2021/06/04 14:16:53;;;;;;;2.30;1.15;;;33.00;39.50;;;;;;2387746;54;21028;-74
2021/06/04 14:19:49;;;;;;;2.85;1.20;;;33.00;39.00;;;;;;2276032;55;21948;-74
2021/06/04 14:22:38;;;;;;;3.10;1.10;;;33.00;38.00;;;;;;2286894;55;20985;-74
2021/06/04 14:25:17;;;;;;;4.28;1.40;;;33.00;38.30;;;;;;2297080;55;21061;-75
2021/06/04 14:28:10;;;;;;;3.72;1.30;;;32.90;37.60;;;;;;2347183;54;21080;-74